createdAt,value
2024-03-01T00:00:04.215Z,0.00
2024-03-01T00:01:04.325Z,0.00
2024-03-01T00:02:04.189Z,0.00
2024-03-01T00:03:04.179Z,0.00
2024-03-01T00:04:04.184Z,0.00
2024-03-01T00:05:04.159Z,0.00
2024-03-01T00:06:04.152Z,0.00
2024-03-01T00:07:04.148Z,0.00
2024-03-01T00:08:04.150Z,0.00
2024-03-01T00:09:04.146Z,0.00
2024-03-01T00:10:04.254Z,0.00
2024-03-01T00:11:04.147Z,0.00
2024-03-01T00:12:04.121Z,0.00
2024-03-01T00:13:04.278Z,0.00
2024-03-01T00:14:04.119Z,0.00
2024-03-01T00:15:04.104Z,0.00
2024-03-01T00:16:04.166Z,0.00
2024-03-01T00:17:04.093Z,0.00
2024-03-01T00:18:04.117Z,0.00
2024-03-01T00:19:04.081Z,0.00
2024-03-01T00:20:04.068Z,0.00
2024-03-01T00:21:04.057Z,0.00
2024-03-01T00:22:04.165Z,0.00
2024-03-01T00:23:04.076Z,0.00
2024-03-01T00:24:04.060Z,0.00
2024-03-01T00:25:04.073Z,0.00
2024-03-01T00:26:04.046Z,0.00
2024-03-01T00:27:04.021Z,0.00
2024-03-01T00:28:04.056Z,0.00
2024-03-01T00:29:04.018Z,0.00
2024-03-01T00:30:04.017Z,0.00
2024-03-01T00:31:04.028Z,0.00
2024-03-01T00:32:04.001Z,0.00
2024-03-01T00:33:04.021Z,0.00
2024-03-01T00:34:04.029Z,0.00
2024-03-01T00:35:04.017Z,0.00
2024-03-01T00:36:03.982Z,0.00
2024-03-01T00:37:04.002Z,0.00
2024-03-01T00:38:03.967Z,0.00
2024-03-01T00:39:04.008Z,0.00
2024-03-01T00:40:04.027Z,0.00
2024-03-01T00:41:03.950Z,0.00
2024-03-01T00:42:03.957Z,0.00
2024-03-01T00:43:03.970Z,0.00
2024-03-01T00:44:03.961Z,0.00
2024-03-01T00:45:03.918Z,0.00
2024-03-01T00:46:04.038Z,0.00
2024-03-01T00:47:03.917Z,0.00
2024-03-01T00:48:03.914Z,0.00
2024-03-01T00:49:03.927Z,0.00
2024-03-01T00:50:03.949Z,0.00
2024-03-01T00:51:03.917Z,0.00
2024-03-01T00:52:03.918Z,0.00
2024-03-01T00:53:03.879Z,0.00
2024-03-01T00:54:03.884Z,0.00
2024-03-01T00:55:03.982Z,0.00
2024-03-01T00:56:03.877Z,0.00
2024-03-01T00:57:03.858Z,0.00
2024-03-01T00:58:03.915Z,0.00
2024-03-01T00:59:03.883Z,0.00
2024-03-01T01:00:03.842Z,0.00
2024-03-01T01:01:03.890Z,0.00
2024-03-01T01:02:04.064Z,0.00
2024-03-01T01:03:03.819Z,0.00
2024-03-01T01:04:03.907Z,0.00
2024-03-01T01:05:03.830Z,0.00
2024-03-01T01:06:03.792Z,0.00
2024-03-01T01:07:03.809Z,0.00
2024-03-01T01:08:03.782Z,0.00
2024-03-01T01:09:03.796Z,0.00
2024-03-01T01:10:03.881Z,0.00
2024-03-01T01:11:03.834Z,0.00
2024-03-01T01:12:03.780Z,0.00
2024-03-01T01:13:03.828Z,0.00
2024-03-01T01:14:03.858Z,0.00
2024-03-01T01:15:03.782Z,0.00
2024-03-01T01:16:03.798Z,0.00
2024-03-01T01:17:03.742Z,0.00
2024-03-01T01:18:03.747Z,0.00
2024-03-01T01:19:03.829Z,0.00
2024-03-01T01:20:03.721Z,0.00
2024-03-01T01:21:03.711Z,0.00
2024-03-01T01:22:03.733Z,0.00
2024-03-01T01:23:03.717Z,0.00
2024-03-01T01:24:03.740Z,0.00
2024-03-01T01:25:03.740Z,0.00
2024-03-01T01:26:03.683Z,0.00
2024-03-01T01:27:03.698Z,0.00
2024-03-01T01:28:03.734Z,0.00
2024-03-01T01:29:03.710Z,0.00
2024-03-01T01:30:03.779Z,0.00
2024-03-01T01:31:03.663Z,0.00
2024-03-01T01:32:03.671Z,0.00
2024-03-01T01:33:03.692Z,0.00
2024-03-01T01:34:03.689Z,0.00
2024-03-01T01:35:03.639Z,0.00
2024-03-01T01:36:03.624Z,0.00
2024-03-01T01:37:03.650Z,0.00
2024-03-01T01:38:03.627Z,0.00
2024-03-01T01:39:03.604Z,0.00
2024-03-01T01:40:03.665Z,0.00
2024-03-01T01:41:03.615Z,0.00
2024-03-01T01:42:03.601Z,0.00
2024-03-01T01:43:03.738Z,0.00
2024-03-01T01:44:03.587Z,0.00
2024-03-01T01:45:03.584Z,0.00
2024-03-01T01:46:03.739Z,0.00
2024-03-01T01:47:03.608Z,0.00
2024-03-01T01:48:03.898Z,0.00
2024-03-01T01:49:03.624Z,0.00
2024-03-01T01:50:03.574Z,0.00
2024-03-01T01:51:03.571Z,0.00
2024-03-01T01:52:03.597Z,0.00
2024-03-01T01:53:09.971Z,0.00
2024-03-01T01:54:03.623Z,0.00
2024-03-01T01:55:03.601Z,0.00
2024-03-01T01:56:03.504Z,0.00
2024-03-01T01:57:03.631Z,0.00
2024-03-01T01:58:03.552Z,0.00
2024-03-01T01:59:03.615Z,0.00
2024-03-01T02:00:03.541Z,0.00
2024-03-01T02:01:03.609Z,0.00
2024-03-01T02:02:03.740Z,0.00
2024-03-01T02:03:03.506Z,0.00
2024-03-01T02:04:03.494Z,0.00
2024-03-01T02:05:03.525Z,0.00
2024-03-01T02:06:03.588Z,0.00
2024-03-01T02:07:03.578Z,0.00
2024-03-01T02:08:03.459Z,0.00
2024-03-01T02:09:03.524Z,0.00
2024-03-01T02:10:03.496Z,0.00
2024-03-01T02:11:03.454Z,0.00
2024-03-01T02:12:03.466Z,0.00
2024-03-01T02:13:03.451Z,0.00
2024-03-01T02:14:03.405Z,0.00
2024-03-01T02:15:03.404Z,0.00
2024-03-01T02:16:03.405Z,0.00
2024-03-01T02:17:03.408Z,0.00
2024-03-01T02:18:03.486Z,0.00
2024-03-01T02:19:03.404Z,0.00
2024-03-01T02:20:03.399Z,0.00
2024-03-01T02:21:03.352Z,0.00
2024-03-01T02:22:03.373Z,0.00
2024-03-01T02:23:03.342Z,0.00
2024-03-01T02:24:03.351Z,0.00
2024-03-01T02:25:03.362Z,0.00
2024-03-01T02:26:03.348Z,0.00
2024-03-01T02:27:03.410Z,0.00
2024-03-01T02:28:03.326Z,0.00
2024-03-01T02:29:03.305Z,0.00
2024-03-01T02:30:03.297Z,0.00
2024-03-01T02:31:03.446Z,0.00
2024-03-01T02:32:03.295Z,0.00
2024-03-01T02:33:03.303Z,0.00
2024-03-01T02:34:03.457Z,0.00
2024-03-01T02:35:03.266Z,0.00
2024-03-01T02:36:03.255Z,0.00
2024-03-01T02:37:03.305Z,0.00
2024-03-01T02:38:03.272Z,0.00
2024-03-01T02:39:04.058Z,0.00
2024-03-01T02:40:03.246Z,0.00
2024-03-01T02:41:03.251Z,0.00
2024-03-01T02:42:03.221Z,0.00
2024-03-01T02:43:03.263Z,0.00
2024-03-01T02:44:03.232Z,0.00
2024-03-01T02:45:03.250Z,0.00
2024-03-01T02:46:03.237Z,0.00
2024-03-01T02:47:03.191Z,0.00
2024-03-01T02:48:03.217Z,0.00
2024-03-01T02:49:03.208Z,0.00
2024-03-01T02:50:03.185Z,0.00
2024-03-01T02:51:03.181Z,0.00
2024-03-01T02:52:03.183Z,0.00
2024-03-01T02:53:03.161Z,0.00
2024-03-01T02:54:03.182Z,0.00
2024-03-01T02:55:03.176Z,0.00
2024-03-01T02:56:03.136Z,0.00
2024-03-01T02:57:03.145Z,0.00
2024-03-01T02:58:03.149Z,0.00
2024-03-01T02:59:03.122Z,0.00
2024-03-01T03:00:03.124Z,0.00
2024-03-01T03:01:03.223Z,0.00
2024-03-01T03:02:03.158Z,0.00
2024-03-01T03:03:03.113Z,0.00
2024-03-01T03:04:03.121Z,0.00
2024-03-01T03:05:03.119Z,0.00
2024-03-01T03:06:03.173Z,0.00
2024-03-01T03:07:06.004Z,0.00
2024-03-01T03:08:03.102Z,0.00
2024-03-01T03:09:03.054Z,0.00
2024-03-01T03:10:03.091Z,0.00
2024-03-01T03:11:03.064Z,0.00
2024-03-01T03:12:03.043Z,0.00
2024-03-01T03:13:03.096Z,0.00
2024-03-01T03:14:03.045Z,0.00
2024-03-01T03:15:03.039Z,0.00
2024-03-01T03:16:03.090Z,0.00
2024-03-01T03:17:03.016Z,0.00
2024-03-01T03:18:03.032Z,0.00
2024-03-01T03:19:03.179Z,0.00
2024-03-01T03:20:03.003Z,0.00
2024-03-01T03:21:02.987Z,0.00
2024-03-01T03:22:03.146Z,0.00
2024-03-01T03:23:02.980Z,0.00
2024-03-01T03:24:02.988Z,0.00
2024-03-01T03:25:02.997Z,0.00
2024-03-01T03:26:02.967Z,0.00
2024-03-01T03:27:02.955Z,0.00
2024-03-01T03:28:02.957Z,0.00
2024-03-01T03:29:02.949Z,0.00
2024-03-01T03:30:02.928Z,0.00
2024-03-01T03:31:02.930Z,0.00
2024-03-01T03:32:02.915Z,0.00
2024-03-01T03:33:02.984Z,0.00
2024-03-01T03:34:02.957Z,0.00
2024-03-01T03:35:02.921Z,0.00
2024-03-01T03:36:02.902Z,0.00
2024-03-01T03:37:02.956Z,0.00
2024-03-01T03:38:02.997Z,0.00
2024-03-01T03:39:02.885Z,0.00
2024-03-01T03:40:02.954Z,0.00
2024-03-01T03:41:02.865Z,0.00
2024-03-01T03:42:02.855Z,0.00
2024-03-01T03:43:02.876Z,0.00
2024-03-01T03:44:02.854Z,0.00
2024-03-01T03:45:02.834Z,0.00
2024-03-01T03:46:02.908Z,0.00
2024-03-01T03:47:02.836Z,0.00
2024-03-01T03:48:02.877Z,0.00
2024-03-01T03:49:02.842Z,0.00
2024-03-01T03:50:02.830Z,0.00
2024-03-01T03:51:02.806Z,0.00
2024-03-01T03:52:02.865Z,0.00
2024-03-01T03:53:02.797Z,0.00
2024-03-01T03:54:02.791Z,0.00
2024-03-01T03:55:02.787Z,0.00
2024-03-01T03:56:02.777Z,0.00
2024-03-01T03:57:02.763Z,0.00
2024-03-01T03:58:02.824Z,0.00
2024-03-01T03:59:02.807Z,0.00
2024-03-01T04:00:02.764Z,0.00
2024-03-01T04:01:02.779Z,0.00
2024-03-01T04:02:02.876Z,0.00
2024-03-01T04:03:02.730Z,0.00
2024-03-01T04:04:02.768Z,0.00
2024-03-01T04:05:02.722Z,0.00
2024-03-01T04:06:02.724Z,0.00
2024-03-01T04:07:02.729Z,0.00
2024-03-01T04:08:02.716Z,0.00
2024-03-01T04:09:02.711Z,0.00
2024-03-01T04:10:02.849Z,0.00
2024-03-01T04:11:02.712Z,0.00
2024-03-01T04:12:02.692Z,0.00
2024-03-01T04:13:02.726Z,0.00
2024-03-01T04:14:02.662Z,0.00
2024-03-01T04:15:05.176Z,0.00
2024-03-01T04:16:02.726Z,0.00
2024-03-01T04:17:02.655Z,0.00
2024-03-01T04:18:02.713Z,0.00
2024-03-01T04:19:02.655Z,0.00
2024-03-01T04:20:02.624Z,0.00
2024-03-01T04:21:02.629Z,0.00
2024-03-01T04:22:02.661Z,0.00
2024-03-01T04:23:02.635Z,0.00
2024-03-01T04:24:02.608Z,0.00
2024-03-01T04:25:02.696Z,0.00
2024-03-01T04:26:02.697Z,0.00
2024-03-01T04:27:02.588Z,0.00
2024-03-01T04:28:02.608Z,0.00
2024-03-01T04:29:02.578Z,0.00
2024-03-01T04:30:02.570Z,0.00
2024-03-01T04:31:02.590Z,0.00
2024-03-01T04:32:02.556Z,0.00
2024-03-01T04:33:02.577Z,0.00
2024-03-01T04:34:02.622Z,0.00
2024-03-01T04:35:02.576Z,0.00
2024-03-01T04:36:02.586Z,0.00
2024-03-01T04:37:02.591Z,0.00
2024-03-01T04:38:02.521Z,0.00
2024-03-01T04:39:02.539Z,0.00
2024-03-01T04:40:02.746Z,0.00
2024-03-01T04:41:02.692Z,0.00
2024-03-01T04:42:02.611Z,0.00
2024-03-01T04:43:02.570Z,0.00
2024-03-01T04:44:02.512Z,0.00
2024-03-01T04:45:02.500Z,0.00
2024-03-01T04:46:02.600Z,0.00
2024-03-01T04:47:02.471Z,0.00
2024-03-01T04:48:02.532Z,0.00
2024-03-01T04:49:02.504Z,0.00
2024-03-01T04:50:02.574Z,0.00
2024-03-01T04:51:02.457Z,0.00
2024-03-01T04:52:02.552Z,0.00
2024-03-01T04:53:02.445Z,0.00
2024-03-01T04:54:02.486Z,0.00
2024-03-01T04:55:02.487Z,0.00
2024-03-01T04:56:02.455Z,0.00
2024-03-01T04:57:02.427Z,0.00
2024-03-01T04:58:02.569Z,0.00
2024-03-01T04:59:02.398Z,0.00
2024-03-01T05:00:02.586Z,0.00
2024-03-01T05:01:02.666Z,0.00
2024-03-01T05:02:02.468Z,0.00
2024-03-01T05:03:02.374Z,0.00
2024-03-01T05:04:02.392Z,0.00
2024-03-01T05:05:02.425Z,0.00
2024-03-01T05:06:02.382Z,0.00
2024-03-01T05:07:02.475Z,0.00
2024-03-01T05:08:02.404Z,0.00
2024-03-01T05:09:02.349Z,0.00
2024-03-01T05:10:02.413Z,0.00
2024-03-01T05:11:02.516Z,0.00
2024-03-01T05:12:02.341Z,0.00
2024-03-01T05:13:02.394Z,0.00
2024-03-01T05:14:02.405Z,0.00
2024-03-01T05:15:04.001Z,0.00
2024-03-01T05:16:02.384Z,0.00
2024-03-01T05:17:02.302Z,0.00
2024-03-01T05:18:02.323Z,0.00
2024-03-01T05:19:02.325Z,0.00
2024-03-01T05:20:02.286Z,0.00
2024-03-01T05:21:02.269Z,0.00
2024-03-01T05:22:02.308Z,0.00
2024-03-01T05:23:02.264Z,0.00
2024-03-01T05:24:02.272Z,0.00
2024-03-01T05:25:02.259Z,0.00
2024-03-01T05:26:02.250Z,0.00
2024-03-01T05:27:02.244Z,0.00
2024-03-01T05:28:02.262Z,0.00
2024-03-01T05:29:02.221Z,0.00
2024-03-01T05:30:02.310Z,0.00
2024-03-01T05:31:10.808Z,0.00
2024-03-01T05:32:02.224Z,0.00
2024-03-01T05:33:02.202Z,0.00
2024-03-01T05:34:02.226Z,0.00
2024-03-01T05:35:02.228Z,0.00
2024-03-01T05:36:02.182Z,0.00
2024-03-01T05:37:02.207Z,0.00
2024-03-01T05:38:02.174Z,0.00
2024-03-01T05:39:02.167Z,0.00
2024-03-01T05:40:02.211Z,0.00
2024-03-01T05:41:02.183Z,0.00
2024-03-01T05:42:02.145Z,0.00
2024-03-01T05:43:02.174Z,0.00
2024-03-01T05:44:02.142Z,0.00
2024-03-01T05:45:02.119Z,0.00
2024-03-01T05:46:02.144Z,0.00
2024-03-01T05:47:02.157Z,0.00
2024-03-01T05:48:02.140Z,0.00
2024-03-01T05:49:02.118Z,0.00
2024-03-01T05:50:02.092Z,0.00
2024-03-01T05:51:02.096Z,0.00
2024-03-01T05:52:02.194Z,0.00
2024-03-01T05:53:02.075Z,0.00
2024-03-01T05:54:02.080Z,0.00
2024-03-01T05:55:02.072Z,0.00
2024-03-01T05:56:02.063Z,0.00
2024-03-01T05:57:02.060Z,0.00
2024-03-01T05:58:02.068Z,0.00
2024-03-01T05:59:02.058Z,0.00
2024-03-01T06:00:02.065Z,0.00
2024-03-01T06:01:02.106Z,0.00
2024-03-01T06:02:02.335Z,0.00
2024-03-01T06:03:02.021Z,0.00
2024-03-01T06:04:02.040Z,0.00
2024-03-01T06:05:02.014Z,0.00
2024-03-01T06:06:02.019Z,0.00
2024-03-01T06:07:02.012Z,0.00
2024-03-01T06:08:02.011Z,0.00
2024-03-01T06:09:01.985Z,0.00
2024-03-01T06:10:02.027Z,0.00
2024-03-01T06:11:01.987Z,0.00
2024-03-01T06:12:01.972Z,0.00
2024-03-01T06:13:02.060Z,0.00
2024-03-01T06:14:01.950Z,0.00
2024-03-01T06:15:01.957Z,0.00
2024-03-01T06:16:01.996Z,0.00
2024-03-01T06:17:01.945Z,0.00
2024-03-01T06:18:01.988Z,0.00
2024-03-01T06:19:02.093Z,0.00
2024-03-01T06:20:01.965Z,0.00
2024-03-01T06:21:01.925Z,0.00
2024-03-01T06:22:01.939Z,0.00
2024-03-01T06:23:01.926Z,0.00
2024-03-01T06:24:01.916Z,0.00
2024-03-01T06:25:01.933Z,0.00
2024-03-01T06:26:01.904Z,0.00
2024-03-01T06:27:01.894Z,0.00
2024-03-01T06:28:01.922Z,0.00
2024-03-01T06:29:01.870Z,0.00
2024-03-01T06:30:01.882Z,0.00
2024-03-01T06:31:01.899Z,0.00
2024-03-01T06:32:01.847Z,5.63
2024-03-01T06:33:02.083Z,5.63
2024-03-01T06:34:01.935Z,5.63
2024-03-01T06:35:01.847Z,5.63
2024-03-01T06:36:01.830Z,5.63
2024-03-01T06:37:01.896Z,5.63
2024-03-01T06:38:01.819Z,5.63
2024-03-01T06:39:01.818Z,5.63
2024-03-01T06:40:01.975Z,5.63
2024-03-01T06:41:01.822Z,5.63
2024-03-01T06:42:01.907Z,5.63
2024-03-01T06:43:01.802Z,5.63
2024-03-01T06:44:01.792Z,5.63
2024-03-01T06:45:01.797Z,5.63
2024-03-01T06:46:01.860Z,5.63
2024-03-01T06:47:04.224Z,5.63
2024-03-01T06:48:01.808Z,5.63
2024-03-01T06:49:01.776Z,5.63
2024-03-01T06:50:01.868Z,5.63
2024-03-01T06:51:01.742Z,5.63
2024-03-01T06:52:01.757Z,5.63
2024-03-01T06:53:01.735Z,5.63
2024-03-01T06:54:01.735Z,5.63
2024-03-01T06:55:01.754Z,11.25
2024-03-01T06:56:01.735Z,11.25
2024-03-01T06:57:01.705Z,11.25
2024-03-01T06:58:01.736Z,11.25
2024-03-01T06:59:01.703Z,11.25
2024-03-01T07:00:01.716Z,11.25
2024-03-01T07:01:01.746Z,11.25
2024-03-01T07:02:01.704Z,11.25
2024-03-01T07:03:01.685Z,11.25
2024-03-01T07:04:01.724Z,11.25
2024-03-01T07:05:01.658Z,11.25
2024-03-01T07:06:01.761Z,11.25
2024-03-01T07:07:01.687Z,11.25
2024-03-01T07:08:01.650Z,11.25
2024-03-01T07:09:01.655Z,11.25
2024-03-01T07:10:01.663Z,11.25
2024-03-01T07:11:01.697Z,11.25
2024-03-01T07:12:01.680Z,11.25
2024-03-01T07:13:03.129Z,11.25
2024-03-01T07:14:06.107Z,11.25
2024-03-01T07:15:01.615Z,11.25
2024-03-01T07:16:01.619Z,11.25
2024-03-01T07:17:01.591Z,11.25
2024-03-01T07:18:01.623Z,11.25
2024-03-01T07:19:01.614Z,11.25
2024-03-01T07:20:01.618Z,11.25
2024-03-01T07:21:01.582Z,11.25
2024-03-01T07:22:01.597Z,11.25
2024-03-01T07:23:01.560Z,11.25
2024-03-01T07:24:01.555Z,11.25
2024-03-01T07:25:01.620Z,11.25
2024-03-01T07:26:04.287Z,11.25
2024-03-01T07:27:01.545Z,11.25
2024-03-01T07:28:01.538Z,11.25
2024-03-01T07:29:01.538Z,11.25
2024-03-01T07:30:01.596Z,11.25
2024-03-01T07:31:01.639Z,11.25
2024-03-01T07:32:03.605Z,11.25
2024-03-01T07:33:01.530Z,11.25
2024-03-01T07:34:01.530Z,11.25
2024-03-01T07:35:01.492Z,11.25
2024-03-01T07:36:01.497Z,11.25
2024-03-01T07:37:01.598Z,11.25
2024-03-01T07:38:01.587Z,11.25
2024-03-01T07:39:01.477Z,16.88
2024-03-01T07:40:01.520Z,16.88
2024-03-01T07:41:01.465Z,16.88
2024-03-01T07:42:01.450Z,16.88
2024-03-01T07:43:01.502Z,16.88
2024-03-01T07:44:01.437Z,16.88
2024-03-01T07:45:01.436Z,16.88
2024-03-01T07:46:01.534Z,16.88
2024-03-01T07:47:01.433Z,16.88
2024-03-01T07:48:01.521Z,16.88
2024-03-01T07:49:01.432Z,16.88
2024-03-01T07:50:01.428Z,16.88
2024-03-01T07:51:01.451Z,16.88
2024-03-01T07:52:01.509Z,16.88
2024-03-01T07:53:01.396Z,16.88
2024-03-01T07:54:01.392Z,16.88
2024-03-01T07:55:01.452Z,16.88
2024-03-01T07:56:01.397Z,16.88
2024-03-01T07:57:01.369Z,16.88
2024-03-01T07:58:01.414Z,16.88
2024-03-01T07:59:01.387Z,16.88
2024-03-01T08:00:01.372Z,16.88
2024-03-01T08:01:01.423Z,16.88
2024-03-01T08:02:01.439Z,16.88
2024-03-01T08:03:01.341Z,16.88
2024-03-01T08:04:04.271Z,16.88
2024-03-01T08:05:01.314Z,16.88
2024-03-01T08:06:01.335Z,16.88
2024-03-01T08:07:01.350Z,16.88
2024-03-01T08:08:01.329Z,22.50
2024-03-01T08:09:01.329Z,22.50
2024-03-01T08:10:01.441Z,22.50
2024-03-01T08:11:01.378Z,22.50
2024-03-01T08:12:01.301Z,22.50
2024-03-01T08:13:02.180Z,22.50
2024-03-01T08:14:01.285Z,22.50
2024-03-01T08:15:01.282Z,22.50
2024-03-01T08:16:01.308Z,22.50
2024-03-01T08:17:01.388Z,22.50
2024-03-01T08:18:01.295Z,22.50
2024-03-01T08:19:01.289Z,22.50
2024-03-01T08:20:01.264Z,22.50
2024-03-01T08:21:01.242Z,22.50
2024-03-01T08:22:01.290Z,22.50
2024-03-01T08:23:01.223Z,22.50
2024-03-01T08:24:01.227Z,22.50
2024-03-01T08:25:01.247Z,28.13
2024-03-01T08:26:01.260Z,28.13
2024-03-01T08:27:01.226Z,28.13
2024-03-01T08:28:01.231Z,22.50
2024-03-01T08:29:01.198Z,28.13
2024-03-01T08:30:01.187Z,28.13
2024-03-01T08:31:01.214Z,28.13
2024-03-01T08:32:03.419Z,28.13
2024-03-01T08:33:01.206Z,22.50
2024-03-01T08:34:01.211Z,22.50
2024-03-01T08:35:01.237Z,28.13
2024-03-01T08:36:01.169Z,28.13
2024-03-01T08:37:01.194Z,22.50
2024-03-01T08:38:01.155Z,22.50
2024-03-01T08:39:01.168Z,22.50
2024-03-01T08:40:01.163Z,22.50
2024-03-01T08:41:01.162Z,22.50
2024-03-01T08:42:01.246Z,33.75
2024-03-01T08:43:01.150Z,28.13
2024-03-01T08:44:01.116Z,28.13
2024-03-01T08:45:01.200Z,28.13
2024-03-01T08:46:01.124Z,28.13
2024-03-01T08:47:01.105Z,33.75
2024-03-01T08:48:01.130Z,39.38
2024-03-01T08:49:01.130Z,33.75
2024-03-01T08:50:01.099Z,33.75
2024-03-01T08:51:01.078Z,28.13
2024-03-01T08:52:01.090Z,28.13
2024-03-01T08:53:01.070Z,33.75
2024-03-01T08:54:01.074Z,33.75
2024-03-01T08:55:01.134Z,33.75
2024-03-01T08:56:01.070Z,33.75
2024-03-01T08:57:01.047Z,33.75
2024-03-01T08:58:01.176Z,39.38
2024-03-01T08:59:01.053Z,39.38
2024-03-01T09:00:01.038Z,33.75
2024-03-01T09:01:01.122Z,33.75
2024-03-01T09:02:01.097Z,39.38
2024-03-01T09:03:01.074Z,45.00
2024-03-01T09:04:01.039Z,50.63
2024-03-01T09:05:01.047Z,50.63
2024-03-01T09:06:01.003Z,50.63
2024-03-01T09:07:01.038Z,50.63
2024-03-01T09:08:01.005Z,50.63
2024-03-01T09:09:00.978Z,45.00
2024-03-01T09:10:01.199Z,50.63
2024-03-01T09:11:01.110Z,56.25
2024-03-01T09:12:00.966Z,61.88
2024-03-01T09:13:01.018Z,61.88
2024-03-01T09:14:01.057Z,56.25
2024-03-01T09:15:00.983Z,56.25
2024-03-01T09:16:00.976Z,78.75
2024-03-01T09:17:00.962Z,73.13
2024-03-01T09:18:00.972Z,67.50
2024-03-01T09:19:00.964Z,67.50
2024-03-01T09:20:00.924Z,73.13
2024-03-01T09:21:00.931Z,90.00
2024-03-01T09:22:00.955Z,101.25
2024-03-01T09:23:00.941Z,101.25
2024-03-01T09:24:00.904Z,90.00
2024-03-01T09:25:01.051Z,101.25
2024-03-01T09:26:00.902Z,106.88
2024-03-01T09:27:00.897Z,90.00
2024-03-01T09:28:00.907Z,78.75
2024-03-01T09:29:00.883Z,84.38
2024-03-01T09:30:00.980Z,84.38
2024-03-01T09:31:00.926Z,90.00
2024-03-01T09:32:00.871Z,112.50
2024-03-01T09:33:00.911Z,123.75
2024-03-01T09:34:00.870Z,101.25
2024-03-01T09:35:00.846Z,84.38
2024-03-01T09:36:00.858Z,78.75
2024-03-01T09:37:00.840Z,90.00
2024-03-01T09:38:00.844Z,84.38
2024-03-01T09:39:00.831Z,73.13
2024-03-01T09:40:00.974Z,73.13
2024-03-01T09:41:00.824Z,90.00
2024-03-01T09:42:00.812Z,84.38
2024-03-01T09:43:00.845Z,73.13
2024-03-01T09:44:00.804Z,84.38
2024-03-01T09:45:00.800Z,123.75
2024-03-01T09:46:00.960Z,140.63
2024-03-01T09:47:00.800Z,129.38
2024-03-01T09:48:00.846Z,118.13
2024-03-01T09:49:00.811Z,112.50
2024-03-01T09:50:00.796Z,101.25
2024-03-01T09:51:00.781Z,90.00
2024-03-01T09:52:00.808Z,95.63
2024-03-01T09:53:00.799Z,118.13
2024-03-01T09:54:00.787Z,135.00
2024-03-01T09:55:00.919Z,123.75
2024-03-01T09:56:00.749Z,129.38
2024-03-01T09:57:00.748Z,123.75
2024-03-01T09:58:00.764Z,118.13
2024-03-01T09:59:00.755Z,118.13
2024-03-01T10:00:00.750Z,140.63
2024-03-01T10:01:00.839Z,151.88
2024-03-01T10:02:00.770Z,140.63
2024-03-01T10:03:00.748Z,118.13
2024-03-01T10:04:00.741Z,123.75
2024-03-01T10:05:00.729Z,135.00
2024-03-01T10:06:02.676Z,174.38
2024-03-01T10:07:00.793Z,168.75
2024-03-01T10:08:00.705Z,151.88
2024-03-01T10:09:00.700Z,135.00
2024-03-01T10:10:00.742Z,129.38
2024-03-01T10:11:00.784Z,123.75
2024-03-01T10:12:00.684Z,123.75
2024-03-01T10:13:00.776Z,118.13
2024-03-01T10:14:00.674Z,118.13
2024-03-01T10:15:00.688Z,118.13
2024-03-01T10:16:00.736Z,123.75
2024-03-01T10:17:00.676Z,123.75
2024-03-01T10:18:00.702Z,123.75
2024-03-01T10:19:00.789Z,140.63
2024-03-01T10:20:00.644Z,163.13
2024-03-01T10:21:00.639Z,157.50
2024-03-01T10:22:00.666Z,129.38
2024-03-01T10:23:00.665Z,112.50
2024-03-01T10:24:00.655Z,118.13
2024-03-01T10:25:00.754Z,118.13
2024-03-01T10:26:00.795Z,118.13
2024-03-01T10:27:00.629Z,129.38
2024-03-01T10:28:00.639Z,135.00
2024-03-01T10:29:00.690Z,129.38
2024-03-01T10:30:00.627Z,123.75
2024-03-01T10:31:00.690Z,123.75
2024-03-01T10:32:00.605Z,118.13
2024-03-01T10:33:00.632Z,123.75
2024-03-01T10:34:01.582Z,123.75
2024-03-01T10:35:00.599Z,129.38
2024-03-01T10:36:00.591Z,129.38
2024-03-01T10:37:00.666Z,129.38
2024-03-01T10:38:00.601Z,135.00
2024-03-01T10:39:00.630Z,140.63
2024-03-01T10:40:00.629Z,135.00
2024-03-01T10:41:01.408Z,123.75
2024-03-01T10:42:00.577Z,112.50
2024-03-01T10:43:00.596Z,106.88
2024-03-01T10:44:00.573Z,106.88
2024-03-01T10:45:00.557Z,112.50
2024-03-01T10:46:00.586Z,118.13
2024-03-01T10:47:02.769Z,118.13
2024-03-01T10:48:00.577Z,118.13
2024-03-01T10:49:00.587Z,123.75
2024-03-01T10:50:00.578Z,123.75
2024-03-01T10:51:00.568Z,123.75
2024-03-01T10:52:00.557Z,123.75
2024-03-01T10:53:00.581Z,123.75
2024-03-01T10:54:00.530Z,118.13
2024-03-01T10:55:00.562Z,112.50
2024-03-01T10:56:00.517Z,106.88
2024-03-01T10:57:00.521Z,106.88
2024-03-01T10:58:00.538Z,106.88
2024-03-01T10:59:00.534Z,106.88
2024-03-01T11:00:00.494Z,101.25
2024-03-01T11:01:00.645Z,101.25
2024-03-01T11:02:00.596Z,95.63
2024-03-01T11:03:00.514Z,90.00
2024-03-01T11:04:00.502Z,84.38
2024-03-01T11:05:00.482Z,78.75
2024-03-01T11:06:00.480Z,78.75
2024-03-01T11:07:00.487Z,73.13
2024-03-01T11:08:00.461Z,78.75
2024-03-01T11:09:00.470Z,84.38
2024-03-01T11:10:00.533Z,90.00
2024-03-01T11:11:00.513Z,101.25
2024-03-01T11:12:00.463Z,106.88
2024-03-01T11:13:00.515Z,106.88
2024-03-01T11:14:00.448Z,106.88
2024-03-01T11:15:00.446Z,106.88
2024-03-01T11:16:00.519Z,106.88
2024-03-01T11:17:00.437Z,101.25
2024-03-01T11:18:00.455Z,101.25
2024-03-01T11:19:00.443Z,101.25
2024-03-01T11:20:00.423Z,95.63
2024-03-01T11:21:00.435Z,90.00
2024-03-01T11:22:00.548Z,84.38
2024-03-01T11:23:00.429Z,90.00
2024-03-01T11:24:00.415Z,95.63
2024-03-01T11:25:00.444Z,101.25
2024-03-01T11:26:00.390Z,106.88
2024-03-01T11:27:00.392Z,112.50
2024-03-01T11:28:00.417Z,112.50
2024-03-01T11:29:00.379Z,112.50
2024-03-01T11:30:00.407Z,112.50
2024-03-01T11:31:00.419Z,118.13
2024-03-01T11:32:00.362Z,118.13
2024-03-01T11:33:00.377Z,112.50
2024-03-01T11:34:00.377Z,112.50
2024-03-01T11:35:00.379Z,112.50
2024-03-01T11:36:00.352Z,112.50
2024-03-01T11:37:00.370Z,106.88
2024-03-01T11:38:00.464Z,106.88
2024-03-01T11:39:00.364Z,106.88
2024-03-01T11:40:00.430Z,101.25
2024-03-01T11:41:00.338Z,101.25
2024-03-01T11:42:00.367Z,101.25
2024-03-01T11:43:00.391Z,101.25
2024-03-01T11:44:00.324Z,101.25
2024-03-01T11:45:00.325Z,95.63
2024-03-01T11:46:00.383Z,95.63
2024-03-01T11:47:00.316Z,95.63
2024-03-01T11:48:00.382Z,95.63
2024-03-01T11:49:00.373Z,90.00
2024-03-01T11:50:00.322Z,95.63
2024-03-01T11:51:00.308Z,95.63
2024-03-01T11:52:00.337Z,95.63
2024-03-01T11:53:00.313Z,95.63
2024-03-01T11:54:00.314Z,90.00
2024-03-01T11:55:00.374Z,90.00
2024-03-01T11:56:00.286Z,90.00
2024-03-01T11:57:00.340Z,90.00
2024-03-01T11:58:00.302Z,90.00
2024-03-01T11:59:00.269Z,90.00
2024-03-01T12:00:00.318Z,90.00
2024-03-01T12:01:00.424Z,90.00
2024-03-01T12:02:00.349Z,90.00
2024-03-01T12:03:00.256Z,90.00
2024-03-01T12:04:00.345Z,90.00
2024-03-01T12:05:03.632Z,90.00
2024-03-01T12:06:00.239Z,90.00
2024-03-01T12:07:00.270Z,90.00
2024-03-01T12:08:02.100Z,90.00
2024-03-01T12:09:00.231Z,90.00
2024-03-01T12:10:00.343Z,90.00
2024-03-01T12:11:00.324Z,90.00
2024-03-01T12:12:00.232Z,90.00
2024-03-01T12:13:00.243Z,90.00
2024-03-01T12:14:00.404Z,90.00
2024-03-01T12:15:00.288Z,90.00
2024-03-01T12:16:00.298Z,90.00
2024-03-01T12:17:00.205Z,90.00
2024-03-01T12:18:00.273Z,90.00
2024-03-01T12:19:00.257Z,90.00
2024-03-01T12:20:00.465Z,90.00
2024-03-01T12:21:00.193Z,90.00
2024-03-01T12:22:00.590Z,90.00
2024-03-01T12:23:00.246Z,90.00
2024-03-01T12:24:00.175Z,90.00
2024-03-01T12:25:00.256Z,90.00
2024-03-01T12:26:00.272Z,90.00
2024-03-01T12:27:00.200Z,95.63
2024-03-01T12:28:00.330Z,95.63
2024-03-01T12:29:00.358Z,90.00
2024-03-01T12:30:00.416Z,90.00
2024-03-01T12:31:00.189Z,90.00
2024-03-01T12:32:00.156Z,90.00
2024-03-01T12:33:00.173Z,90.00
2024-03-01T12:34:01.894Z,90.00
2024-03-01T12:35:00.231Z,90.00
2024-03-01T12:36:00.139Z,90.00
2024-03-01T12:37:00.138Z,90.00
2024-03-01T12:38:00.168Z,84.38
2024-03-01T12:39:00.146Z,84.38
2024-03-01T12:40:00.417Z,84.38
2024-03-01T12:41:00.105Z,84.38
2024-03-01T12:42:00.222Z,84.38
2024-03-01T12:43:00.203Z,84.38
2024-03-01T12:44:00.186Z,84.38
2024-03-01T12:45:00.100Z,84.38
2024-03-01T12:46:00.131Z,84.38
2024-03-01T12:47:00.116Z,84.38
2024-03-01T12:48:00.166Z,84.38
2024-03-01T12:49:00.103Z,84.38
2024-03-01T12:50:00.150Z,84.38
2024-03-01T12:51:00.083Z,84.38
2024-03-01T12:52:00.081Z,84.38
2024-03-01T12:53:00.084Z,84.38
2024-03-01T12:54:00.061Z,84.38
2024-03-01T12:55:00.117Z,84.38
2024-03-01T12:56:00.069Z,84.38
2024-03-01T12:57:00.043Z,84.38
2024-03-01T12:58:00.161Z,84.38
2024-03-01T12:59:00.095Z,84.38
2024-03-01T13:00:00.070Z,84.38
2024-03-01T13:01:00.191Z,84.38
2024-03-01T13:02:00.072Z,84.38